| Ora | Descriere | Temp | Se simte | Precipitatii | Umiditate | Vant |
|---|---|---|---|---|---|---|
| 00:00 | Senin | 15.7° | 15.8° | 0% | 64% | NNE 9.7 KM/H |
| 01:00 | 15.2° | 15.2° | 0% | 67% | NNE 9 KM/H | |
| 02:00 | 14.9° | 14.8° | 0% | 68% | NNE 7.9 KM/H | |
| 03:00 | 14.9° | 14.8° | 0% | 69% | NNE 7.6 KM/H | |
| 04:00 | 14.8° | 14.4° | 0% | 70% | N 9.7 KM/H | |
| 05:00 | 14.2° | 13.5° | 0% | 73% | N 10.8 KM/H | |
| 06:00 | Innorat | 13.6° | 12.8° | 0% | 77% | N 10.8 KM/H |
| 07:00 | Innorat | 13.7° | 13° | 0% | 81% | N 10.1 KM/H |
| 08:00 | Innorat | 14.8° | 14.3° | 0% | 81% | N 10.1 KM/H |
| 09:00 | Innorat | 15.8° | 15.8° | 0% | 78% | N 11.5 KM/H |
| 10:00 | Innorat | 17° | 17° | 0% | 74% | NNE 11.9 KM/H |
| 11:00 | 17.9° | 17.9° | 0% | 70% | N 11.5 KM/H | |
| 12:00 | Patchy rain nearby | 18.6° | 18.6° | 72% | 66% | N 13.3 KM/H |
| 13:00 | Patchy rain nearby | 19° | 19° | 72% | 64% | N 14.8 KM/H |
| 14:00 | 19.8° | 19.8° | 0% | 60% | N 14.8 KM/H | |
| 15:00 | Senin | 24.4° | 20.9° | 0% | 39% | N 13.3 KM/H |
| 16:00 | Senin | 21.6° | 21.6° | 0% | 46% | N 12.2 KM/H |
| 17:00 | Senin | 21.8° | 21.8° | 0% | 47% | N 11.5 KM/H |
| 18:00 | 21.7° | 21.8° | 0% | 48% | NNE 10.4 KM/H | |
| 19:00 | 21.2° | 21.2° | 0% | 55% | NE 8.3 KM/H | |
| 20:00 | 18.5° | 18.5° | 0% | 65% | ENE 7.2 KM/H | |
| 21:00 | 16.3° | 16.3° | 0% | 67% | E 7.2 KM/H | |
| 22:00 | 15.4° | 15.4° | 0% | 66% | ESE 6.8 KM/H | |
| 23:00 | 15.4° | 15.4° | 0% | 64% | SE 7.2 KM/H |